LFRI

La Roche-sur-Yon Airport

La Roche-sur-Yon/Les Ajoncs, France
TAF LFRI 161700Z 1618/1718 27008KT CAVOK
Issued Valid From Valid To
Jul-16 @ 17:00 UTC
(3 hours ago)
Jul-16 @ 18:00 UTC
(2 hours ago)
Jul-17 @ 18:00 UTC
(in 22 hours)
Jul-16 @ 18:00 to Jul-17 @ 18:00
TAF LFRI 161700Z 1618/1718 27008KT CAVOK
Wind Visibility Clouds Conditions
270° at 8 knots 10,000+ meters
  • No significant clouds
TAF LFRI 161700Z 1618/1718 27008KT CAVOK
Issued Jul-16 @ 17:00 UTC
(3 hours ago)
Valid From Jul-16 @ 18:00 UTC
(2 hours ago)
Valid To Jul-17 @ 18:00 UTC
(in 22 hours)
Jul-16 @ 18:00 - Jul-17 @ 18:00
Wind Visibility
270° at 8 knots 10,000+ meters
Clouds
  • No significant clouds
Conditions